OCN9P EDDF-LEPA
Flight info
| Callsign | OCN9P |
|---|---|
| Flight time | 1h 57m |
| Altitude | 37000 |
| Route | ANEKI2L ANEKI Y163 HERBI Y164 MOPAN DCT LUTIX DCT BENOT DCT NEMOS DCT GEVEA DCT INCUS DCT BALSI DCT RETNO DCT TUPOX DCT MTG DCT DIVKO DCT VATIR DCT PIVUS N852 VERSO L129 LUNIK |
| Aircraft | A320/M-SDE2E3FGIJ1LORWXYZ/HB1 |
Departure
| Time | 2026-05-07 17:40 |
|---|---|
| Airport | Frankfurt Main Airport (EDDF) |
Arrival
| Time | 2026-05-07 19:38 |
|---|---|
| Airport | Palma de Mallorca Airport (LEPA) |
| Time | Latitude | Longitude | Altitude | Speed | Heading |
|---|---|---|---|---|---|
| 2026-05-07 17:00 | 50.04920 | 8.59186 | 365 ft | 0 kts | 340° |
| 2026-05-07 17:21 | 50.04903 | 8.59195 | 365 ft | 4 kts | 340° |
| 2026-05-07 17:21 | 50.04881 | 8.59207 | 368 ft | 1 kts | 340° |
| 2026-05-07 17:21 | 50.04858 | 8.59221 | 370 ft | 4 kts | 340° |
| 2026-05-07 17:21 | 50.04840 | 8.59231 | 368 ft | 0 kts | 340° |
| 2026-05-07 17:27 | 50.04841 | 8.59226 | 368 ft | 1 kts | 303° |
| 2026-05-07 17:28 | 50.04832 | 8.59200 | 370 ft | 6 kts | 247° |
| 2026-05-07 17:28 | 50.04804 | 8.59094 | 368 ft | 14 kts | 250° |
| 2026-05-07 17:28 | 50.04772 | 8.58962 | 371 ft | 10 kts | 250° |
| 2026-05-07 17:28 | 50.04767 | 8.58940 | 371 ft | 0 kts | 249° |
| 2026-05-07 17:30 | 50.04765 | 8.58932 | 370 ft | 3 kts | 249° |
| 2026-05-07 17:30 | 50.04752 | 8.58877 | 371 ft | 8 kts | 250° |
| 2026-05-07 17:30 | 50.04726 | 8.58767 | 370 ft | 14 kts | 250° |
| 2026-05-07 17:30 | 50.04683 | 8.58605 | 371 ft | 18 kts | 246° |
| 2026-05-07 17:31 | 50.04631 | 8.58413 | 369 ft | 20 kts | 253° |
| 2026-05-07 17:31 | 50.04583 | 8.58198 | 369 ft | 23 kts | 250° |
| 2026-05-07 17:31 | 50.04524 | 8.57947 | 366 ft | 25 kts | 250° |
| 2026-05-07 17:31 | 50.04463 | 8.57688 | 365 ft | 20 kts | 249° |
| 2026-05-07 17:32 | 50.04413 | 8.57477 | 366 ft | 23 kts | 250° |
| 2026-05-07 17:32 | 50.04357 | 8.57240 | 363 ft | 24 kts | 249° |
| 2026-05-07 17:32 | 50.04306 | 8.57024 | 363 ft | 19 kts | 250° |
| 2026-05-07 17:32 | 50.04275 | 8.56888 | 360 ft | 21 kts | 250° |
| 2026-05-07 17:33 | 50.04202 | 8.56584 | 355 ft | 25 kts | 250° |
| 2026-05-07 17:33 | 50.04142 | 8.56335 | 358 ft | 23 kts | 250° |
| 2026-05-07 17:33 | 50.04085 | 8.56099 | 357 ft | 22 kts | 250° |
| 2026-05-07 17:33 | 50.04032 | 8.55872 | 358 ft | 24 kts | 249° |
| 2026-05-07 17:34 | 50.03971 | 8.55620 | 354 ft | 26 kts | 249° |
| 2026-05-07 17:34 | 50.03906 | 8.55351 | 357 ft | 27 kts | 250° |
| 2026-05-07 17:34 | 50.03862 | 8.55170 | 354 ft | 16 kts | 250° |
| 2026-05-07 17:34 | 50.03820 | 8.55002 | 352 ft | 17 kts | 250° |
| 2026-05-07 17:35 | 50.03777 | 8.54814 | 355 ft | 20 kts | 249° |
| 2026-05-07 17:35 | 50.03727 | 8.54602 | 348 ft | 22 kts | 249° |
| 2026-05-07 17:35 | 50.03669 | 8.54358 | 349 ft | 25 kts | 249° |
| 2026-05-07 17:35 | 50.03605 | 8.54096 | 351 ft | 27 kts | 249° |
| 2026-05-07 17:36 | 50.03537 | 8.53815 | 337 ft | 29 kts | 250° |
| 2026-05-07 17:36 | 50.03466 | 8.53518 | 337 ft | 30 kts | 249° |
| 2026-05-07 17:36 | 50.03400 | 8.53237 | 333 ft | 25 kts | 249° |
| 2026-05-07 17:36 | 50.03345 | 8.53012 | 332 ft | 22 kts | 249° |
| 2026-05-07 17:37 | 50.03300 | 8.52825 | 331 ft | 14 kts | 250° |
| 2026-05-07 17:37 | 50.03284 | 8.52757 | 335 ft | 0 kts | 250° |
| 2026-05-07 17:39 | 50.03263 | 8.52679 | 334 ft | 13 kts | 239° |
| 2026-05-07 17:39 | 50.03169 | 8.52600 | 335 ft | 20 kts | 189° |
| 2026-05-07 17:39 | 50.02985 | 8.52600 | 334 ft | 40 kts | 180° |
| 2026-05-07 17:40 | 50.02473 | 8.52609 | 331 ft | 107 kts | 179° |
| 2026-05-07 17:40 | 50.01548 | 8.52611 | 336 ft | 158 kts | 180° |
| 2026-05-07 17:40 | 50.00394 | 8.52634 | 872 ft | 167 kts | 179° |
| 2026-05-07 17:40 | 49.99190 | 8.52676 | 1517 ft | 179 kts | 179° |
| 2026-05-07 17:41 | 49.97866 | 8.52759 | 1875 ft | 202 kts | 178° |
| 2026-05-07 17:41 | 49.96394 | 8.52894 | 2246 ft | 221 kts | 176° |
| 2026-05-07 17:41 | 49.94792 | 8.53057 | 2778 ft | 236 kts | 178° |
| 2026-05-07 17:41 | 49.93151 | 8.53175 | 3634 ft | 238 kts | 179° |
| 2026-05-07 17:42 | 49.91494 | 8.53277 | 3925 ft | 237 kts | 179° |
| 2026-05-07 17:42 | 49.89836 | 8.53376 | 3988 ft | 243 kts | 179° |
| 2026-05-07 17:42 | 49.88133 | 8.53480 | 3989 ft | 245 kts | 179° |
| 2026-05-07 17:42 | 49.86427 | 8.53588 | 3985 ft | 245 kts | 179° |
| 2026-05-07 17:43 | 49.84722 | 8.53700 | 3980 ft | 246 kts | 179° |
| 2026-05-07 17:43 | 49.82935 | 8.53816 | 4301 ft | 270 kts | 179° |
| 2026-05-07 17:43 | 49.81003 | 8.53944 | 5026 ft | 283 kts | 179° |
| 2026-05-07 17:43 | 49.79019 | 8.54080 | 5954 ft | 287 kts | 179° |
| 2026-05-07 17:44 | 49.77016 | 8.54006 | 6872 ft | 290 kts | 186° |
| 2026-05-07 17:44 | 49.74993 | 8.53743 | 7785 ft | 293 kts | 187° |
| 2026-05-07 17:44 | 49.72949 | 8.53467 | 8695 ft | 297 kts | 187° |
| 2026-05-07 17:44 | 49.70874 | 8.53185 | 9614 ft | 301 kts | 187° |
| 2026-05-07 17:45 | 49.68773 | 8.52902 | 10457 ft | 305 kts | 186° |
| 2026-05-07 17:45 | 49.66648 | 8.52618 | 11273 ft | 309 kts | 186° |
| 2026-05-07 17:45 | 49.64528 | 8.52336 | 12120 ft | 311 kts | 186° |
| 2026-05-07 17:45 | 49.62327 | 8.52044 | 12962 ft | 315 kts | 186° |
| 2026-05-07 17:46 | 49.60875 | 8.51851 | 13497 ft | 317 kts | 186° |
| 2026-05-07 17:46 | 49.58629 | 8.51556 | 13897 ft | 335 kts | 186° |
| 2026-05-07 17:46 | 49.55412 | 8.51134 | 14090 ft | 364 kts | 186° |
| 2026-05-07 17:46 | 49.53669 | 8.50906 | 14162 ft | 378 kts | 186° |
| 2026-05-07 17:47 | 49.50979 | 8.50555 | 14290 ft | 397 kts | 186° |
| 2026-05-07 17:47 | 49.48170 | 8.50190 | 14410 ft | 413 kts | 186° |
| 2026-05-07 17:47 | 49.45290 | 8.49816 | 14627 ft | 424 kts | 186° |
| 2026-05-07 17:47 | 49.42339 | 8.49433 | 15102 ft | 427 kts | 186° |
| 2026-05-07 17:48 | 49.39365 | 8.49045 | 15617 ft | 430 kts | 186° |
| 2026-05-07 17:48 | 49.36371 | 8.48622 | 16097 ft | 432 kts | 189° |
| 2026-05-07 17:48 | 49.33464 | 8.47469 | 16549 ft | 434 kts | 199° |
| 2026-05-07 17:48 | 49.30600 | 8.45983 | 17033 ft | 436 kts | 200° |
| 2026-05-07 17:49 | 49.27724 | 8.44462 | 17509 ft | 438 kts | 200° |
| 2026-05-07 17:49 | 49.24828 | 8.42915 | 17973 ft | 441 kts | 200° |
| 2026-05-07 17:49 | 49.21925 | 8.41362 | 18412 ft | 443 kts | 201° |
| 2026-05-07 17:49 | 49.19013 | 8.39805 | 18793 ft | 445 kts | 201° |
| 2026-05-07 17:50 | 49.16079 | 8.38241 | 19175 ft | 447 kts | 200° |
| 2026-05-07 17:50 | 49.13126 | 8.36675 | 19543 ft | 449 kts | 200° |
| 2026-05-07 17:50 | 49.10169 | 8.35115 | 19899 ft | 451 kts | 200° |
| 2026-05-07 17:50 | 49.07184 | 8.33548 | 20246 ft | 454 kts | 200° |
| 2026-05-07 17:51 | 49.04193 | 8.31981 | 20585 ft | 455 kts | 200° |
| 2026-05-07 17:51 | 49.01197 | 8.30408 | 20980 ft | 456 kts | 200° |
| 2026-05-07 17:51 | 48.98201 | 8.28838 | 21429 ft | 455 kts | 200° |
| 2026-05-07 17:51 | 48.95206 | 8.27268 | 21904 ft | 454 kts | 200° |
| 2026-05-07 17:52 | 48.92224 | 8.25705 | 22383 ft | 453 kts | 200° |
| 2026-05-07 17:52 | 48.89246 | 8.24152 | 22878 ft | 452 kts | 200° |
| 2026-05-07 17:52 | 48.86270 | 8.22602 | 23381 ft | 451 kts | 200° |
| 2026-05-07 17:52 | 48.83307 | 8.21059 | 23850 ft | 451 kts | 200° |
| 2026-05-07 17:53 | 48.80336 | 8.19510 | 24276 ft | 450 kts | 200° |
| 2026-05-07 17:53 | 48.77380 | 8.17968 | 24707 ft | 449 kts | 201° |
| 2026-05-07 17:53 | 48.74470 | 8.16452 | 25137 ft | 448 kts | 201° |
| 2026-05-07 17:53 | 48.71518 | 8.14919 | 25574 ft | 448 kts | 201° |
| 2026-05-07 17:54 | 48.68536 | 8.13373 | 26034 ft | 447 kts | 201° |
| 2026-05-07 17:54 | 48.65638 | 8.11870 | 26472 ft | 446 kts | 201° |
| 2026-05-07 17:54 | 48.62708 | 8.10356 | 26931 ft | 445 kts | 201° |
| 2026-05-07 17:54 | 48.59772 | 8.08844 | 27396 ft | 444 kts | 201° |
| 2026-05-07 17:55 | 48.56853 | 8.07340 | 27864 ft | 443 kts | 201° |
| 2026-05-07 17:55 | 48.53938 | 8.05838 | 28333 ft | 443 kts | 201° |
| 2026-05-07 17:55 | 48.51027 | 8.04336 | 28792 ft | 442 kts | 201° |
| 2026-05-07 17:55 | 48.48123 | 8.02844 | 29249 ft | 441 kts | 201° |
| 2026-05-07 17:56 | 48.45204 | 8.01349 | 29725 ft | 441 kts | 201° |
| 2026-05-07 17:56 | 48.42304 | 7.99867 | 30182 ft | 440 kts | 201° |
| 2026-05-07 17:56 | 48.39416 | 7.98390 | 30578 ft | 439 kts | 201° |
| 2026-05-07 17:56 | 48.36523 | 7.96909 | 30979 ft | 438 kts | 201° |
| 2026-05-07 17:57 | 48.33648 | 7.95438 | 31389 ft | 437 kts | 201° |
| 2026-05-07 17:57 | 48.31739 | 7.94463 | 31669 ft | 436 kts | 201° |
| 2026-05-07 17:57 | 48.27910 | 7.92511 | 32221 ft | 434 kts | 201° |
| 2026-05-07 17:57 | 48.25055 | 7.91059 | 32631 ft | 433 kts | 201° |
| 2026-05-07 17:58 | 48.22210 | 7.89616 | 33055 ft | 432 kts | 201° |
| 2026-05-07 17:58 | 48.19364 | 7.88174 | 33465 ft | 431 kts | 201° |
| 2026-05-07 17:58 | 48.16522 | 7.86734 | 33894 ft | 429 kts | 202° |
| 2026-05-07 17:58 | 48.13692 | 7.85302 | 34256 ft | 428 kts | 202° |
| 2026-05-07 17:59 | 48.10871 | 7.83873 | 34592 ft | 427 kts | 202° |
| 2026-05-07 17:59 | 48.08055 | 7.82447 | 34906 ft | 426 kts | 202° |
| 2026-05-07 17:59 | 48.05246 | 7.81027 | 35198 ft | 426 kts | 202° |
| 2026-05-07 17:59 | 48.02475 | 7.79630 | 35487 ft | 425 kts | 202° |
| 2026-05-07 18:00 | 47.99672 | 7.78222 | 35773 ft | 425 kts | 202° |
| 2026-05-07 18:00 | 47.96876 | 7.76813 | 36046 ft | 424 kts | 202° |
| 2026-05-07 18:00 | 47.94091 | 7.75408 | 36328 ft | 423 kts | 202° |
| 2026-05-07 18:00 | 47.91291 | 7.74003 | 36610 ft | 423 kts | 202° |
| 2026-05-07 18:01 | 47.88503 | 7.72607 | 36877 ft | 422 kts | 202° |
| 2026-05-07 18:01 | 47.85714 | 7.71211 | 37027 ft | 423 kts | 202° |
| 2026-05-07 18:01 | 47.80143 | 7.68422 | 37035 ft | 422 kts | 202° |
| 2026-05-07 18:02 | 47.71796 | 7.64274 | 37028 ft | 422 kts | 202° |
| 2026-05-07 18:03 | 47.66230 | 7.61510 | 37029 ft | 422 kts | 202° |
| 2026-05-07 18:03 | 47.60664 | 7.58747 | 37029 ft | 422 kts | 202° |
| 2026-05-07 18:04 | 47.55105 | 7.55990 | 37028 ft | 422 kts | 202° |
| 2026-05-07 18:04 | 47.52770 | 7.54850 | 37030 ft | 422 kts | 201° |
| 2026-05-07 18:05 | 47.47204 | 7.52120 | 37028 ft | 422 kts | 202° |
| 2026-05-07 18:05 | 47.41638 | 7.49363 | 37033 ft | 421 kts | 202° |
| 2026-05-07 18:06 | 47.36078 | 7.46623 | 37034 ft | 421 kts | 202° |
| 2026-05-07 18:06 | 47.30518 | 7.43901 | 37036 ft | 421 kts | 202° |
| 2026-05-07 18:07 | 47.24963 | 7.41184 | 37038 ft | 420 kts | 202° |
| 2026-05-07 18:07 | 47.19469 | 7.38358 | 37038 ft | 417 kts | 208° |
| 2026-05-07 18:08 | 47.14759 | 7.33580 | 37040 ft | 408 kts | 228° |
| 2026-05-07 18:08 | 47.11168 | 7.27188 | 37039 ft | 406 kts | 233° |
| 2026-05-07 18:09 | 47.07640 | 7.20711 | 37036 ft | 406 kts | 233° |
| 2026-05-07 18:09 | 47.04109 | 7.14248 | 37039 ft | 406 kts | 233° |
| 2026-05-07 18:10 | 47.00582 | 7.07785 | 37037 ft | 406 kts | 233° |
| 2026-05-07 18:10 | 46.97075 | 7.01377 | 37039 ft | 405 kts | 233° |
| 2026-05-07 18:11 | 46.93543 | 6.94946 | 37038 ft | 405 kts | 233° |
| 2026-05-07 18:11 | 46.89733 | 6.88903 | 37036 ft | 408 kts | 222° |
| 2026-05-07 18:12 | 46.85293 | 6.83613 | 37038 ft | 408 kts | 222° |
| 2026-05-07 18:12 | 46.80925 | 6.78421 | 37038 ft | 408 kts | 222° |
| 2026-05-07 18:13 | 46.76526 | 6.73191 | 37040 ft | 407 kts | 222° |
| 2026-05-07 18:13 | 46.72132 | 6.67976 | 37034 ft | 407 kts | 221° |
| 2026-05-07 18:14 | 46.67741 | 6.62769 | 37035 ft | 407 kts | 222° |
| 2026-05-07 18:14 | 46.63344 | 6.57579 | 37033 ft | 407 kts | 221° |
| 2026-05-07 18:15 | 46.58951 | 6.52397 | 37028 ft | 406 kts | 221° |
| 2026-05-07 18:15 | 46.54562 | 6.47231 | 37025 ft | 406 kts | 221° |
| 2026-05-07 18:16 | 46.50165 | 6.42078 | 37023 ft | 406 kts | 221° |
| 2026-05-07 18:16 | 46.45801 | 6.36973 | 37013 ft | 406 kts | 221° |
| 2026-05-07 18:17 | 46.41408 | 6.31845 | 37018 ft | 405 kts | 221° |
| 2026-05-07 18:17 | 46.37013 | 6.26721 | 37016 ft | 405 kts | 221° |
| 2026-05-07 18:18 | 46.32621 | 6.21612 | 37020 ft | 405 kts | 221° |
| 2026-05-07 18:18 | 46.28208 | 6.16523 | 37004 ft | 405 kts | 219° |
| 2026-05-07 18:19 | 46.23145 | 6.12874 | 37019 ft | 413 kts | 199° |
| 2026-05-07 18:19 | 46.17451 | 6.11435 | 37013 ft | 416 kts | 192° |
| 2026-05-07 18:20 | 46.11717 | 6.10181 | 36995 ft | 416 kts | 193° |
| 2026-05-07 18:20 | 46.05987 | 6.08919 | 36971 ft | 416 kts | 193° |
| 2026-05-07 18:21 | 46.00261 | 6.07649 | 36966 ft | 416 kts | 193° |
| 2026-05-07 18:21 | 45.94542 | 6.06381 | 36974 ft | 416 kts | 193° |
| 2026-05-07 18:22 | 45.88817 | 6.05119 | 36970 ft | 416 kts | 193° |
| 2026-05-07 18:22 | 45.83103 | 6.03863 | 36974 ft | 416 kts | 193° |
| 2026-05-07 18:23 | 45.77390 | 6.02597 | 36976 ft | 415 kts | 193° |
| 2026-05-07 18:23 | 45.71681 | 6.01328 | 36975 ft | 415 kts | 193° |
| 2026-05-07 18:24 | 45.65981 | 6.00063 | 36971 ft | 415 kts | 193° |
| 2026-05-07 18:24 | 45.60302 | 5.98817 | 36974 ft | 415 kts | 193° |
| 2026-05-07 18:25 | 45.54598 | 5.97574 | 36977 ft | 415 kts | 192° |
| 2026-05-07 18:25 | 45.48894 | 5.96333 | 36977 ft | 414 kts | 193° |
| 2026-05-07 18:26 | 45.43247 | 5.94859 | 36979 ft | 412 kts | 196° |
| 2026-05-07 18:26 | 45.37662 | 5.93035 | 36979 ft | 412 kts | 197° |
| 2026-05-07 18:27 | 45.32083 | 5.91184 | 36981 ft | 411 kts | 197° |
| 2026-05-07 18:27 | 45.26501 | 5.89423 | 36983 ft | 411 kts | 196° |
| 2026-05-07 18:28 | 45.20904 | 5.87700 | 36985 ft | 411 kts | 196° |
| 2026-05-07 18:28 | 45.15321 | 5.85981 | 36990 ft | 411 kts | 196° |
| 2026-05-07 18:29 | 45.09739 | 5.84260 | 36988 ft | 410 kts | 196° |
| 2026-05-07 18:29 | 45.04160 | 5.82537 | 36986 ft | 410 kts | 196° |
| 2026-05-07 18:30 | 44.98590 | 5.80816 | 36983 ft | 410 kts | 196° |
| 2026-05-07 18:30 | 44.93024 | 5.79099 | 36977 ft | 409 kts | 196° |
| 2026-05-07 18:31 | 44.87471 | 5.77393 | 36982 ft | 408 kts | 196° |
| 2026-05-07 18:31 | 44.81925 | 5.75697 | 36978 ft | 408 kts | 197° |
| 2026-05-07 18:32 | 44.77320 | 5.74291 | 36980 ft | 407 kts | 197° |
| 2026-05-07 18:32 | 44.71788 | 5.72615 | 36973 ft | 406 kts | 197° |
| 2026-05-07 18:33 | 44.66271 | 5.70927 | 36981 ft | 406 kts | 197° |
| 2026-05-07 18:33 | 44.60755 | 5.69242 | 36969 ft | 405 kts | 197° |
| 2026-05-07 18:34 | 44.55246 | 5.67576 | 36974 ft | 405 kts | 197° |
| 2026-05-07 18:34 | 44.49744 | 5.65907 | 36973 ft | 404 kts | 197° |
| 2026-05-07 18:35 | 44.44251 | 5.64240 | 36955 ft | 403 kts | 197° |
| 2026-05-07 18:35 | 44.38727 | 5.62559 | 36966 ft | 402 kts | 199° |
| 2026-05-07 18:36 | 44.33527 | 5.59901 | 36971 ft | 397 kts | 205° |
| 2026-05-07 18:36 | 44.28419 | 5.57097 | 36963 ft | 397 kts | 205° |
| 2026-05-07 18:37 | 44.23283 | 5.54286 | 36965 ft | 396 kts | 206° |
| 2026-05-07 18:37 | 44.18154 | 5.51492 | 36975 ft | 395 kts | 205° |
| 2026-05-07 18:38 | 44.13032 | 5.48702 | 36977 ft | 395 kts | 206° |
| 2026-05-07 18:38 | 44.07920 | 5.45916 | 36975 ft | 394 kts | 206° |
| 2026-05-07 18:39 | 44.02816 | 5.43147 | 36973 ft | 393 kts | 205° |
| 2026-05-07 18:39 | 43.97722 | 5.40389 | 36978 ft | 393 kts | 206° |
| 2026-05-07 18:40 | 43.92636 | 5.37630 | 36979 ft | 392 kts | 206° |
| 2026-05-07 18:40 | 43.87559 | 5.34892 | 36978 ft | 392 kts | 205° |
| 2026-05-07 18:41 | 43.82476 | 5.32151 | 36975 ft | 391 kts | 205° |
| 2026-05-07 18:41 | 43.77407 | 5.29420 | 36978 ft | 391 kts | 205° |
| 2026-05-07 18:42 | 43.72341 | 5.26694 | 36978 ft | 390 kts | 205° |
| 2026-05-07 18:42 | 43.67281 | 5.23973 | 36979 ft | 390 kts | 205° |
| 2026-05-07 18:43 | 43.62215 | 5.21266 | 36981 ft | 390 kts | 205° |
| 2026-05-07 18:43 | 43.57160 | 5.18559 | 36973 ft | 390 kts | 205° |
| 2026-05-07 18:44 | 43.52108 | 5.15858 | 36979 ft | 390 kts | 205° |
| 2026-05-07 18:44 | 43.47053 | 5.13169 | 36979 ft | 389 kts | 205° |
| 2026-05-07 18:45 | 43.41990 | 5.10479 | 36978 ft | 389 kts | 205° |
| 2026-05-07 18:45 | 43.37147 | 5.07302 | 36975 ft | 384 kts | 217° |
| 2026-05-07 18:46 | 43.32754 | 5.03125 | 36972 ft | 384 kts | 217° |
| 2026-05-07 18:46 | 43.28353 | 4.98982 | 36974 ft | 384 kts | 217° |
| 2026-05-07 18:47 | 43.23945 | 4.94859 | 36974 ft | 384 kts | 217° |
| 2026-05-07 18:47 | 43.19543 | 4.90727 | 36974 ft | 384 kts | 217° |
| 2026-05-07 18:48 | 43.15133 | 4.86581 | 36971 ft | 384 kts | 217° |
| 2026-05-07 18:48 | 43.10730 | 4.82463 | 36975 ft | 384 kts | 217° |
| 2026-05-07 18:49 | 43.06316 | 4.78349 | 36977 ft | 384 kts | 216° |
| 2026-05-07 18:49 | 43.01674 | 4.74697 | 36974 ft | 385 kts | 212° |
| 2026-05-07 18:50 | 42.96982 | 4.71142 | 36976 ft | 385 kts | 212° |
| 2026-05-07 18:50 | 42.92297 | 4.67595 | 36977 ft | 385 kts | 212° |
| 2026-05-07 18:51 | 42.87609 | 4.64045 | 36978 ft | 385 kts | 212° |
| 2026-05-07 18:51 | 42.82929 | 4.60512 | 36980 ft | 385 kts | 211° |
| 2026-05-07 18:52 | 42.78234 | 4.56977 | 36979 ft | 385 kts | 211° |
| 2026-05-07 18:52 | 42.73547 | 4.53458 | 36979 ft | 385 kts | 211° |
| 2026-05-07 18:53 | 42.68860 | 4.49946 | 36979 ft | 385 kts | 211° |
| 2026-05-07 18:53 | 42.64168 | 4.46427 | 36977 ft | 385 kts | 211° |
| 2026-05-07 18:54 | 42.59514 | 4.42927 | 36975 ft | 385 kts | 211° |
| 2026-05-07 18:54 | 42.54821 | 4.39421 | 36975 ft | 385 kts | 211° |
| 2026-05-07 18:55 | 42.50124 | 4.35928 | 36972 ft | 385 kts | 211° |
| 2026-05-07 18:55 | 42.45424 | 4.32436 | 36973 ft | 385 kts | 211° |
| 2026-05-07 18:56 | 42.40719 | 4.28938 | 36973 ft | 386 kts | 211° |
| 2026-05-07 18:56 | 42.36019 | 4.25443 | 36973 ft | 386 kts | 211° |
| 2026-05-07 18:57 | 42.31312 | 4.21955 | 36974 ft | 386 kts | 211° |
| 2026-05-07 18:57 | 42.26607 | 4.18474 | 36975 ft | 386 kts | 211° |
| 2026-05-07 18:58 | 42.21893 | 4.14996 | 36973 ft | 386 kts | 211° |
| 2026-05-07 18:58 | 42.17174 | 4.11524 | 36975 ft | 386 kts | 211° |
| 2026-05-07 18:59 | 42.12456 | 4.08060 | 36973 ft | 386 kts | 211° |
| 2026-05-07 18:59 | 42.07740 | 4.04594 | 36974 ft | 386 kts | 211° |
| 2026-05-07 19:00 | 42.03030 | 4.01128 | 36978 ft | 386 kts | 211° |
| 2026-05-07 19:00 | 41.98296 | 3.97666 | 36974 ft | 386 kts | 211° |
| 2026-05-07 19:01 | 41.93547 | 3.94263 | 36977 ft | 388 kts | 206° |
| 2026-05-07 19:01 | 41.88314 | 3.92402 | 36968 ft | 393 kts | 193° |
| 2026-05-07 19:02 | 41.82912 | 3.91171 | 36967 ft | 394 kts | 193° |
| 2026-05-07 19:02 | 41.77504 | 3.89936 | 36964 ft | 394 kts | 193° |
| 2026-05-07 19:03 | 41.72101 | 3.88695 | 36964 ft | 395 kts | 193° |
| 2026-05-07 19:03 | 41.66679 | 3.87447 | 36964 ft | 395 kts | 193° |
| 2026-05-07 19:04 | 41.61227 | 3.86191 | 36964 ft | 395 kts | 193° |
| 2026-05-07 19:04 | 41.55837 | 3.84957 | 36969 ft | 396 kts | 193° |
| 2026-05-07 19:05 | 41.50408 | 3.83710 | 36969 ft | 396 kts | 193° |
| 2026-05-07 19:05 | 41.44981 | 3.82463 | 36968 ft | 396 kts | 193° |
| 2026-05-07 19:06 | 41.39551 | 3.81220 | 36970 ft | 396 kts | 193° |
| 2026-05-07 19:06 | 41.31404 | 3.79360 | 36977 ft | 396 kts | 193° |
| 2026-05-07 19:07 | 41.25973 | 3.78122 | 36972 ft | 396 kts | 193° |
| 2026-05-07 19:07 | 41.20546 | 3.76888 | 36973 ft | 396 kts | 193° |
| 2026-05-07 19:08 | 41.15115 | 3.75532 | 36787 ft | 399 kts | 200° |
| 2026-05-07 19:08 | 41.12525 | 3.74278 | 36596 ft | 395 kts | 204° |
| 2026-05-07 19:08 | 41.09966 | 3.72946 | 36821 ft | 395 kts | 204° |
| 2026-05-07 19:09 | 41.07400 | 3.71616 | 36948 ft | 399 kts | 204° |
| 2026-05-07 19:09 | 41.04804 | 3.70277 | 36975 ft | 401 kts | 204° |
| 2026-05-07 19:09 | 40.99594 | 3.67600 | 36967 ft | 402 kts | 204° |
| 2026-05-07 19:10 | 40.94368 | 3.64925 | 36965 ft | 403 kts | 204° |
| 2026-05-07 19:10 | 40.89140 | 3.62243 | 36972 ft | 403 kts | 204° |
| 2026-05-07 19:11 | 40.83904 | 3.59562 | 36967 ft | 404 kts | 204° |
| 2026-05-07 19:11 | 40.78663 | 3.56884 | 36968 ft | 404 kts | 204° |
| 2026-05-07 19:12 | 40.73420 | 3.54197 | 36965 ft | 404 kts | 204° |
| 2026-05-07 19:12 | 40.68157 | 3.51514 | 36249 ft | 406 kts | 204° |
| 2026-05-07 19:13 | 40.65582 | 3.50210 | 35788 ft | 401 kts | 203° |
| 2026-05-07 19:13 | 40.62982 | 3.48892 | 35178 ft | 399 kts | 203° |
| 2026-05-07 19:13 | 40.60402 | 3.47582 | 34662 ft | 395 kts | 203° |
| 2026-05-07 19:13 | 40.57847 | 3.46284 | 34127 ft | 392 kts | 202° |
| 2026-05-07 19:14 | 40.55312 | 3.44996 | 33550 ft | 389 kts | 202° |
| 2026-05-07 19:14 | 40.52804 | 3.43724 | 33030 ft | 384 kts | 202° |
| 2026-05-07 19:14 | 40.51133 | 3.42879 | 32687 ft | 381 kts | 202° |
| 2026-05-07 19:14 | 40.48671 | 3.41636 | 32175 ft | 377 kts | 202° |
| 2026-05-07 19:15 | 40.46227 | 3.40408 | 31677 ft | 373 kts | 201° |
| 2026-05-07 19:15 | 40.43720 | 3.39571 | 31252 ft | 371 kts | 190° |
| 2026-05-07 19:15 | 40.41158 | 3.39396 | 30832 ft | 370 kts | 182° |
| 2026-05-07 19:15 | 40.38624 | 3.39518 | 30231 ft | 370 kts | 181° |
| 2026-05-07 19:16 | 40.36062 | 3.39664 | 29722 ft | 366 kts | 181° |
| 2026-05-07 19:16 | 40.33532 | 3.39818 | 29260 ft | 362 kts | 181° |
| 2026-05-07 19:16 | 40.31035 | 3.39975 | 28817 ft | 357 kts | 181° |
| 2026-05-07 19:16 | 40.28576 | 3.40129 | 28384 ft | 352 kts | 180° |
| 2026-05-07 19:17 | 40.26142 | 3.40277 | 27954 ft | 347 kts | 181° |
| 2026-05-07 19:17 | 40.23740 | 3.40417 | 27531 ft | 343 kts | 181° |
| 2026-05-07 19:17 | 40.21364 | 3.40554 | 27097 ft | 340 kts | 181° |
| 2026-05-07 19:17 | 40.19014 | 3.40684 | 26678 ft | 337 kts | 181° |
| 2026-05-07 19:18 | 40.16679 | 3.40812 | 26232 ft | 335 kts | 181° |
| 2026-05-07 19:18 | 40.14327 | 3.40941 | 25786 ft | 333 kts | 181° |
| 2026-05-07 19:18 | 40.12021 | 3.41067 | 25342 ft | 331 kts | 181° |
| 2026-05-07 19:18 | 40.09723 | 3.41193 | 24890 ft | 330 kts | 181° |
| 2026-05-07 19:19 | 40.07428 | 3.41316 | 24430 ft | 330 kts | 181° |
| 2026-05-07 19:19 | 40.05136 | 3.41441 | 23963 ft | 330 kts | 181° |
| 2026-05-07 19:19 | 40.02840 | 3.41571 | 23463 ft | 330 kts | 181° |
| 2026-05-07 19:19 | 40.00544 | 3.41705 | 22973 ft | 330 kts | 180° |
| 2026-05-07 19:20 | 39.98259 | 3.41836 | 22505 ft | 328 kts | 180° |
| 2026-05-07 19:20 | 39.95988 | 3.41965 | 22060 ft | 326 kts | 179° |
| 2026-05-07 19:20 | 39.93728 | 3.42093 | 21611 ft | 325 kts | 179° |
| 2026-05-07 19:20 | 39.91474 | 3.42216 | 21178 ft | 323 kts | 179° |
| 2026-05-07 19:21 | 39.89235 | 3.42329 | 20775 ft | 321 kts | 180° |
| 2026-05-07 19:21 | 39.87003 | 3.41935 | 19935 ft | 331 kts | 199° |
| 2026-05-07 19:21 | 39.84892 | 3.40591 | 19070 ft | 344 kts | 208° |
| 2026-05-07 19:21 | 39.82778 | 3.39049 | 18484 ft | 349 kts | 208° |
| 2026-05-07 19:22 | 39.80675 | 3.37494 | 17993 ft | 348 kts | 208° |
| 2026-05-07 19:22 | 39.78585 | 3.35941 | 17573 ft | 344 kts | 208° |
| 2026-05-07 19:22 | 39.76512 | 3.34402 | 17127 ft | 342 kts | 208° |
| 2026-05-07 19:22 | 39.74455 | 3.32881 | 16715 ft | 339 kts | 207° |
| 2026-05-07 19:23 | 39.72414 | 3.31378 | 16306 ft | 337 kts | 207° |
| 2026-05-07 19:23 | 39.70381 | 3.29885 | 15912 ft | 335 kts | 207° |
| 2026-05-07 19:23 | 39.68355 | 3.28400 | 15510 ft | 333 kts | 208° |
| 2026-05-07 19:23 | 39.66374 | 3.26947 | 15130 ft | 331 kts | 207° |
| 2026-05-07 19:24 | 39.64376 | 3.25470 | 14743 ft | 330 kts | 210° |
| 2026-05-07 19:24 | 39.62585 | 3.23614 | 14340 ft | 331 kts | 225° |
| 2026-05-07 19:24 | 39.61226 | 3.21234 | 14145 ft | 326 kts | 239° |
| 2026-05-07 19:24 | 39.60217 | 3.18640 | 13814 ft | 318 kts | 242° |
| 2026-05-07 19:25 | 39.59236 | 3.16090 | 13164 ft | 314 kts | 242° |
| 2026-05-07 19:25 | 39.58257 | 3.13563 | 12756 ft | 313 kts | 242° |
| 2026-05-07 19:25 | 39.57511 | 3.11646 | 12469 ft | 312 kts | 242° |
| 2026-05-07 19:25 | 39.56535 | 3.09131 | 12087 ft | 311 kts | 242° |
| 2026-05-07 19:26 | 39.55566 | 3.06643 | 11732 ft | 309 kts | 242° |
| 2026-05-07 19:26 | 39.54595 | 3.04152 | 11368 ft | 308 kts | 242° |
| 2026-05-07 19:26 | 39.53630 | 3.01680 | 10989 ft | 306 kts | 242° |
| 2026-05-07 19:26 | 39.52670 | 2.99222 | 10614 ft | 305 kts | 242° |
| 2026-05-07 19:27 | 39.51722 | 2.96794 | 10133 ft | 297 kts | 242° |
| 2026-05-07 19:27 | 39.50793 | 2.94414 | 9711 ft | 297 kts | 242° |
| 2026-05-07 19:27 | 39.49862 | 2.92034 | 9299 ft | 296 kts | 242° |
| 2026-05-07 19:27 | 39.48932 | 2.89660 | 8886 ft | 295 kts | 242° |
| 2026-05-07 19:28 | 39.48011 | 2.87300 | 8483 ft | 293 kts | 242° |
| 2026-05-07 19:28 | 39.47091 | 2.84949 | 8064 ft | 292 kts | 242° |
| 2026-05-07 19:28 | 39.46173 | 2.82610 | 7641 ft | 291 kts | 242° |
| 2026-05-07 19:28 | 39.45257 | 2.80276 | 7238 ft | 290 kts | 242° |
| 2026-05-07 19:29 | 39.44349 | 2.77954 | 6816 ft | 289 kts | 242° |
| 2026-05-07 19:29 | 39.43583 | 2.75568 | 6394 ft | 289 kts | 254° |
| 2026-05-07 19:29 | 39.43263 | 2.72984 | 6020 ft | 285 kts | 262° |
| 2026-05-07 19:29 | 39.42820 | 2.70511 | 5717 ft | 280 kts | 253° |
| 2026-05-07 19:30 | 39.42254 | 2.68124 | 5414 ft | 281 kts | 252° |
| 2026-05-07 19:30 | 39.41650 | 2.65687 | 5107 ft | 280 kts | 252° |
| 2026-05-07 19:30 | 39.41057 | 2.63309 | 4817 ft | 275 kts | 252° |
| 2026-05-07 19:30 | 39.40475 | 2.60976 | 4503 ft | 270 kts | 252° |
| 2026-05-07 19:31 | 39.39900 | 2.58689 | 4192 ft | 265 kts | 252° |
| 2026-05-07 19:31 | 39.39342 | 2.56443 | 3880 ft | 260 kts | 252° |
| 2026-05-07 19:31 | 39.38811 | 2.54282 | 3577 ft | 245 kts | 252° |
| 2026-05-07 19:31 | 39.38549 | 2.52192 | 3275 ft | 229 kts | 278° |
| 2026-05-07 19:32 | 39.39133 | 2.50384 | 3082 ft | 212 kts | 315° |
| 2026-05-07 19:32 | 39.40321 | 2.49460 | 3051 ft | 194 kts | 352° |
| 2026-05-07 19:32 | 39.41652 | 2.49277 | 3053 ft | 191 kts | 3° |
| 2026-05-07 19:32 | 39.42908 | 2.49697 | 3063 ft | 186 kts | 31° |
| 2026-05-07 19:33 | 39.44009 | 2.50588 | 3063 ft | 187 kts | 36° |
| 2026-05-07 19:33 | 39.45080 | 2.51545 | 3059 ft | 187 kts | 37° |
| 2026-05-07 19:33 | 39.45992 | 2.52698 | 3065 ft | 180 kts | 59° |
| 2026-05-07 19:33 | 39.46604 | 2.53998 | 2990 ft | 167 kts | 58° |
| 2026-05-07 19:34 | 39.47198 | 2.55246 | 2818 ft | 159 kts | 60° |
| 2026-05-07 19:34 | 39.47773 | 2.56453 | 2627 ft | 156 kts | 59° |
| 2026-05-07 19:34 | 39.48326 | 2.57615 | 2435 ft | 148 kts | 59° |
| 2026-05-07 19:34 | 39.48858 | 2.58732 | 2250 ft | 145 kts | 60° |
| 2026-05-07 19:35 | 39.49371 | 2.59811 | 2064 ft | 138 kts | 59° |
| 2026-05-07 19:35 | 39.49865 | 2.60850 | 1878 ft | 134 kts | 59° |
| 2026-05-07 19:35 | 39.50345 | 2.61860 | 1712 ft | 131 kts | 59° |
| 2026-05-07 19:35 | 39.50820 | 2.62861 | 1525 ft | 130 kts | 60° |
| 2026-05-07 19:36 | 39.51296 | 2.63862 | 1348 ft | 129 kts | 59° |
| 2026-05-07 19:36 | 39.51774 | 2.64870 | 1164 ft | 133 kts | 59° |
| 2026-05-07 19:36 | 39.52253 | 2.65880 | 982 ft | 130 kts | 60° |
| 2026-05-07 19:36 | 39.52736 | 2.66897 | 809 ft | 130 kts | 59° |
| 2026-05-07 19:37 | 39.53203 | 2.67881 | 639 ft | 130 kts | 58° |
| 2026-05-07 19:37 | 39.53668 | 2.68862 | 454 ft | 127 kts | 58° |
| 2026-05-07 19:37 | 39.54120 | 2.69845 | 237 ft | 126 kts | 59° |
| 2026-05-07 19:37 | 39.54592 | 2.70791 | 120 ft | 127 kts | 59° |
| 2026-05-07 19:38 | 39.55035 | 2.71746 | 46 ft | 115 kts | 60° |
| 2026-05-07 19:38 | 39.55383 | 2.72478 | 38 ft | 71 kts | 59° |
| 2026-05-07 19:38 | 39.55570 | 2.72876 | 38 ft | 43 kts | 58° |
| 2026-05-07 19:38 | 39.55708 | 2.73192 | 38 ft | 34 kts | 77° |
| 2026-05-07 19:39 | 39.55713 | 2.73450 | 38 ft | 25 kts | 91° |
| 2026-05-07 19:39 | 39.55653 | 2.73505 | 36 ft | 12 kts | 223° |
| 2026-05-07 19:39 | 39.55621 | 2.73432 | 36 ft | 6 kts | 241° |
| 2026-05-07 19:39 | 39.55601 | 2.73390 | 38 ft | 4 kts | 238° |
| 2026-05-07 19:40 | 39.55576 | 2.73339 | 38 ft | 14 kts | 238° |
| 2026-05-07 19:40 | 39.55510 | 2.73199 | 38 ft | 18 kts | 238° |
| 2026-05-07 19:40 | 39.55472 | 2.73116 | 38 ft | 13 kts | 239° |
| 2026-05-07 19:40 | 39.55424 | 2.73015 | 38 ft | 6 kts | 238° |
| 2026-05-07 19:41 | 39.55407 | 2.72986 | 38 ft | 3 kts | 226° |
| 2026-05-07 19:41 | 39.55372 | 2.72977 | 32 ft | 8 kts | 155° |
| 2026-05-07 19:41 | 39.55322 | 2.73017 | 29 ft | 8 kts | 142° |
| 2026-05-07 19:41 | 39.55294 | 2.73042 | 30 ft | 4 kts | 148° |
| 2026-05-07 19:42 | 39.55274 | 2.73081 | 31 ft | 8 kts | 105° |
| 2026-05-07 19:42 | 39.55304 | 2.73147 | 31 ft | 11 kts | 46° |
| 2026-05-07 19:42 | 39.55356 | 2.73256 | 31 ft | 17 kts | 63° |
| 2026-05-07 19:42 | 39.55412 | 2.73382 | 31 ft | 15 kts | 59° |
| 2026-05-07 19:43 | 39.55464 | 2.73493 | 31 ft | 14 kts | 58° |
| 2026-05-07 19:43 | 39.55489 | 2.73596 | 32 ft | 11 kts | 118° |
| 2026-05-07 19:43 | 39.55448 | 2.73639 | 33 ft | 5 kts | 148° |
| 2026-05-07 19:43 | 39.55405 | 2.73673 | 35 ft | 10 kts | 149° |
| 2026-05-07 19:44 | 39.55326 | 2.73734 | 36 ft | 17 kts | 148° |
| 2026-05-07 19:44 | 39.55215 | 2.73821 | 36 ft | 19 kts | 149° |
| 2026-05-07 19:44 | 39.55100 | 2.73912 | 36 ft | 19 kts | 148° |
| 2026-05-07 19:44 | 39.54985 | 2.74003 | 36 ft | 19 kts | 148° |
| 2026-05-07 19:45 | 39.54873 | 2.74090 | 35 ft | 18 kts | 149° |
| 2026-05-07 19:45 | 39.54778 | 2.74102 | 36 ft | 12 kts | 221° |
| 2026-05-07 19:45 | 39.54730 | 2.74008 | 38 ft | 13 kts | 238° |
| 2026-05-07 19:45 | 39.54679 | 2.73900 | 38 ft | 15 kts | 239° |
| 2026-05-07 19:46 | 39.54629 | 2.73791 | 38 ft | 12 kts | 239° |
| 2026-05-07 19:46 | 39.54594 | 2.73713 | 38 ft | 8 kts | 239° |
| 2026-05-07 19:46 | 39.54585 | 2.73663 | 38 ft | 4 kts | 281° |
| 2026-05-07 19:46 | 39.54618 | 2.73624 | 36 ft | 12 kts | 346° |
| 2026-05-07 19:47 | 39.54679 | 2.73605 | 36 ft | 5 kts | 352° |
| 2026-05-07 19:47 | 39.54690 | 2.73620 | 35 ft | 1 kts | 56° |
| 2026-05-07 19:47 | 39.54696 | 2.73634 | 35 ft | 3 kts | 58° |
| 2026-05-07 19:47 | 39.54708 | 2.73657 | 36 ft | 2 kts | 58° |
| 2026-05-07 19:48 | 39.54711 | 2.73663 | 36 ft | 2 kts | 59° |
| 2026-05-07 19:48 | 39.54716 | 2.73675 | 36 ft | 0 kts | 59° |
| 2026-05-07 19:48 | 39.54716 | 2.73676 | 36 ft | 0 kts | 59° |